Overview Statistics Trail Chart Weather Telemetry Raw packets
 

This is the latest recevied weather packets stored in our database for station/object 4S6DRJ-13. If no packets are shown the sender has not sent any weather packets the latest 10 day(s).

<< 241 242 243 244 245 246 247 >>
Time Temp. Humidity Pressure Rain* Wind** Luminosity Snow
1788112049 28.33° C 84% 1010.7 hPa 0 mm 0.89 m/s, 243° 0 W/m² -
1788111989 28.33° C 84% 1010.7 hPa 0 mm 0.45 m/s, 243° 0 W/m² -
1788111927 28.33° C 84% 1010.7 hPa 0 mm 0 m/s 0 W/m² -
1788111866 28.33° C 84% 1010.9 hPa 0 mm 1.34 m/s, 210° 0 W/m² -
1788111806 28.33° C 84% 1010.8 hPa 0 mm 0.89 m/s, 225° 0 W/m² -
1788111744 28.33° C 84% 1010.9 hPa 0 mm 2.24 m/s, 260° 0 W/m² -
1788111683 28.33° C 84% 1010.7 hPa 0 mm 1.79 m/s, 224° 0 W/m² -
1788111622 28.33° C 84% 1010.8 hPa 0 mm 2.24 m/s, 254° 0 W/m² -
1788111561 28.33° C 84% 1011 hPa 0 mm 1.79 m/s, 265° 0 W/m² -
1788111500 28.33° C 84% 1011.1 hPa 0 mm 0.89 m/s, 105° 0 W/m² -
1788111439 28.33° C 84% 1010.8 hPa 0 mm 2.24 m/s, 318° 0 W/m² -
1788111379 28.33° C 84% 1011 hPa 0 mm 1.79 m/s, 216° 0 W/m² -
1788111318 28.33° C 84% 1010.9 hPa 0 mm 0.45 m/s, 201° 0 W/m² -
1788111256 28.33° C 84% 1011 hPa 0 mm 0.45 m/s, 241° 0 W/m² -
1788111195 28.33° C 84% 1011 hPa 0 mm 1.79 m/s, 265° 0 W/m² -
1788111134 28.33° C 84% 1010.8 hPa 0 mm 0.89 m/s, 264° 0 W/m² -
1788111073 28.33° C 84% 1010.9 hPa 0 mm 1.34 m/s, 248° 0 W/m² -
1788111012 28.33° C 84% 1010.9 hPa 0 mm 0.89 m/s, 300° 0 W/m² -
1788110951 28.33° C 84% 1011 hPa 0 mm 1.79 m/s, 231° 0 W/m² -
1788110890 28.33° C 84% 1011.1 hPa 0 mm 0.89 m/s, 232° 0 W/m² -
1788110829 28.33° C 84% 1011.1 hPa 0 mm 0.89 m/s, 227° 0 W/m² -
1788110768 28.33° C 84% 1011 hPa 0 mm 1.34 m/s, 239° 0 W/m² -
1788110707 28.33° C 84% 1010.9 hPa 0 mm 1.79 m/s, 254° 0 W/m² -
1788110646 28.33° C 84% 1011.1 hPa 0 mm 1.79 m/s, 190° 0 W/m² -
1788110585 28.33° C 84% 1011 hPa 0 mm 0.89 m/s, 238° 0 W/m² -

* Rain latest hour (hover to see other rain measurements)
** Current wind speed in m/s (hover to see current wind gust speed)